Italic G — IBYH — position and weather

sailwx.info

Track history (hours):
 
Tides and Currents Weather Stations Pressure Air Temp Water Temp Dewpoint Dewpoint Depression Visibility Wind Speed Wind Dir Waves Ship Positions

Italic G

Last reported at 2016-Dec-03 19:28 UTC. Time now 2016-Dec-04 03:53 UTC.
Position N 59°37' E 023°10'.

Length 229 m; draft 12.8 m.

Type: Cargo ship. MMSI: 247282300.

Date/timePositionNaut miles runAvg speedWind from/ knotsBaromVisibWave heightAir tempDewpointWater temp
2016-Dec-03 19:28N 59°37' E 023°10'1011.3
2016-Dec-03 18:33N 59°40' E 023°30'3611.4
2016-Dec-03 15:22N 59°49' E 024°40'1211.2
2016-Dec-03 14:19N 59°51' E 025°03'3411.3
2016-Dec-03 11:17N 59°58' E 026°09'811.4
2016-Dec-03 10:33N 60°00' E 026°25'3210.7
2016-Dec-03 07:33N 60°07' E 027°28'1210.6
2016-Dec-03 06:24N 60°12' E 027°51'1011.1
2016-Dec-03 05:32N 60°09' E 028°09'1010.6
2016-Dec-03 04:33N 60°04' E 028°28'9 8.8
2016-Dec-03 03:33N 59°56' E 028°35'9 9.0
2016-Dec-03 02:33N 59°49' E 028°26'7 7.4
2016-Dec-03 01:34N 59°41' E 028°25'0 0.1
2016-Dec-03 00:24N 59°41' E 028°25'0 0.0
2016-Dec-02 23:27N 59°41' E 028°25'0 0.0
2016-Dec-02 22:27N 59°41' E 028°25'0 0.0
2016-Dec-02 21:24N 59°41' E 028°25'0 0.0
2016-Dec-02 20:30N 59°41' E 028°25'0 0.0
2016-Dec-02 19:15N 59°41' E 028°25'0 0.0
2016-Dec-02 18:33N 59°41' E 028°25'0 0.0
2016-Dec-02 17:33N 59°41' E 028°25'0 0.0
2016-Dec-02 16:33N 59°41' E 028°25'0 0.0
2016-Dec-02 15:30N 59°41' E 028°25'0 0.0
2016-Dec-02 14:33N 59°41' E 028°25'0 0.0
2016-Dec-02 13:21N 59°41' E 028°25'0 0.0
2016-Dec-02 12:33N 59°41' E 028°25'0 0.0
2016-Dec-02 11:24N 59°41' E 028°25'0 0.0
2016-Dec-02 10:24N 59°41' E 028°25'0 0.0
2016-Dec-02 09:24N 59°41' E 028°25'0 0.0
2016-Dec-02 08:27N 59°41' E 028°25'0 0.0
2016-Dec-02 07:27N 59°41' E 028°25'0 0.0
2016-Dec-02 06:30N 59°41' E 028°25'0 0.0
2016-Dec-02 05:30N 59°41' E 028°25'0 0.0
2016-Dec-02 04:33N 59°41' E 028°25'0 0.0
2016-Dec-02 03:33N 59°41' E 028°25'0 0.0
2016-Dec-02 02:33N 59°41' E 028°25'0 0.0
2016-Dec-02 01:33N 59°41' E 028°25'0 0.0
2016-Dec-02 00:33N 59°41' E 028°25'0 0.0
2016-Dec-01 23:33N 59°41' E 028°25'0 0.0
2016-Dec-01 22:33N 59°41' E 028°25'0 0.0
2016-Dec-01 21:33N 59°41' E 028°25'0 0.0
2016-Dec-01 20:24N 59°41' E 028°25'0 0.0
2016-Dec-01 19:27N 59°41' E 028°25'0 0.0
2016-Dec-01 18:27N 59°41' E 028°25'0 0.0
2016-Dec-01 17:15N 59°41' E 028°25'0 0.0
2016-Dec-01 16:30N 59°41' E 028°25'0 0.0
2016-Dec-01 15:30N 59°41' E 028°25'0 0.0
2016-Dec-01 14:30N 59°41' E 028°25'0 0.0
2016-Dec-01 13:33N 59°41' E 028°25'0 0.0
2016-Dec-01 12:33N 59°41' E 028°25'0 0.0
2016-Dec-01 11:30N 59°41' E 028°25'0 0.0
2016-Dec-01 10:30N 59°41' E 028°25'0 0.0
2016-Dec-01 09:33N 59°41' E 028°25'0 0.0
2016-Dec-01 08:33N 59°41' E 028°25'0 0.0
2016-Dec-01 07:33N 59°41' E 028°25'0 0.0
2016-Dec-01 06:24N 59°41' E 028°25'0 0.0
2016-Dec-01 05:27N 59°41' E 028°25'0 0.0
2016-Dec-01 04:12N 59°41' E 028°25'0 0.0
2016-Dec-01 03:24N 59°41' E 028°25'0 0.0
2016-Dec-01 02:30N 59°41' E 028°25'0 0.0
2016-Dec-01 01:30N 59°41' E 028°25'0 0.0
2016-Dec-01 00:33N 59°41' E 028°25'1 0.7
2016-Nov-30 23:33N 59°42' E 028°24'8 8.2
2016-Nov-30 22:33N 59°50' E 028°26'7 7.5
2016-Nov-30 21:33N 59°56' E 028°33'3 2.6
2016-Nov-30 20:33N 59°58' E 028°37'2 1.5
2016-Nov-30 19:33N 59°60' E 028°36'6 6.2
2016-Nov-30 18:34N 60°03' E 028°26'1110.8
2016-Nov-30 17:33N 60°08' E 028°07'3811.1
2016-Nov-30 14:09N 59°58' E 026°54'711.8
2016-Nov-30 13:33N 59°59' E 026°40'5011.8
2016-Nov-30 09:18N 59°48' E 025°02'3211.8
2016-Nov-30 06:33N 59°39' E 024°01'1211.7
2016-Nov-30 05:33N 59°35' E 023°39'1211.7
2016-Nov-30 04:33N 59°32' E 023°17'33810.9
2016-Nov-28 21:32N 55°38' E 015°39'1211.9
2016-Nov-28 20:34N 55°34' E 015°20'1211.9
2016-Nov-28 19:34N 55°29' E 015°01'1212.0
2016-Nov-28 18:33N 55°25' E 014°42'1211.6
2016-Nov-28 17:33N 55°16' E 014°28'1110.5
2016-Nov-28 16:34N 55°10' E 014°13'1212.1
2016-Nov-28 15:33N 55°10' E 013°52'2911.9
2016-Nov-28 13:08N 55°13' E 013°02'711.9
2016-Nov-28 12:34N 55°15' E 012°50'10 9.9
2016-Nov-28 11:33N 55°22' E 012°38'1211.8
2016-Nov-28 10:33N 55°33' E 012°42'1010.4
2016-Nov-28 09:34N 55°43' E 012°41'1313.1
2016-Nov-28 08:33N 55°56' E 012°38'1010.1
2016-Nov-28 07:33N 56°06' E 012°33'1110.6
2016-Nov-28 06:33N 56°12' E 012°17'5510.8
2016-Nov-28 01:27N 57°03' E 011°40'1011.1
2016-Nov-28 00:33N 57°13' E 011°34'1110.9
2016-Nov-27 23:33N 57°23' E 011°27'1010.1
2016-Nov-27 22:33N 57°31' E 011°16'10 9.5
2016-Nov-27 21:33N 57°37' E 011°02'9 9.3
2016-Nov-27 20:33N 57°44' E 010°50'9 8.8
2016-Nov-27 19:33N 57°48' E 010°36'8 7.9
2016-Nov-27 18:33N 57°49' E 010°21'272 8.2
2016-Nov-26 09:23N 54°17' E 005°16'1011.6
2016-Nov-26 08:33N 54°08' E 005°09'1211.7
2016-Nov-26 07:33N 53°57' E 005°03'1212.0
2016-Nov-26 06:33N 53°46' E 004°56'1212.2
2016-Nov-26 05:33N 53°34' E 004°49'1312.6
2016-Nov-26 04:30N 53°22' E 004°41'1213.0
2016-Nov-26 03:33N 53°11' E 004°32'1312.9
2016-Nov-26 02:33N 52°59' E 004°22'1313.0
2016-Nov-26 01:33N 52°48' E 004°11'1313.0
2016-Nov-26 00:33N 52°37' E 003°60'1412.9
2016-Nov-25 23:28N 52°24' E 003°53'1212.6
2016-Nov-25 22:33N 52°12' E 003°53'1010.0
2016-Nov-25 21:33N 52°02' E 003°55'8 7.8
2016-Nov-25 20:31N 51°58' E 004°07'0 0.0
2016-Nov-25 19:31N 51°58' E 004°07'0 0.0
2016-Nov-25 18:31N 51°58' E 004°07'0 0.0
2016-Nov-25 17:31N 51°58' E 004°07'0 0.0
2016-Nov-25 16:32N 51°58' E 004°07'0 0.0
2016-Nov-25 15:32N 51°58' E 004°07'0 0.0
2016-Nov-25 14:32N 51°58' E 004°07'0 0.0
2016-Nov-25 13:32N 51°58' E 004°07'0 0.0
2016-Nov-25 12:25N 51°58' E 004°07'0 0.0
2016-Nov-25 11:32N 51°58' E 004°07'0 0.0
2016-Nov-25 10:32N 51°58' E 004°07'0 0.0
2016-Nov-25 09:32N 51°58' E 004°07'0 0.0
2016-Nov-25 08:31N 51°58' E 004°07'0 0.0
2016-Nov-25 07:29N 51°58' E 004°07'0 0.0
2016-Nov-25 06:32N 51°58' E 004°07'0 0.0
2016-Nov-25 05:31N 51°58' E 004°07'0 0.0
2016-Nov-25 04:31N 51°58' E 004°07'0 0.0
2016-Nov-25 03:29N 51°58' E 004°07'0 0.0
2016-Nov-25 02:32N 51°58' E 004°07'0 0.0
2016-Nov-25 01:32N 51°58' E 004°07'0 0.0
2016-Nov-25 00:32N 51°58' E 004°07'0 0.0
2016-Nov-24 23:29N 51°58' E 004°07'0 0.0
2016-Nov-24 22:29N 51°58' E 004°07'0 0.0
2016-Nov-24 21:32N 51°58' E 004°07'0 0.0
2016-Nov-24 20:32N 51°58' E 004°07'0 0.0
2016-Nov-24 19:32N 51°58' E 004°07'0 0.0
2016-Nov-24 18:32N 51°58' E 004°07'0 0.0
2016-Nov-24 17:32N 51°58' E 004°07'0 0.0
2016-Nov-24 16:32N 51°58' E 004°07'0 0.0
2016-Nov-24 15:29N 51°58' E 004°07'0 0.0
2016-Nov-24 14:32N 51°58' E 004°07'0 0.0
2016-Nov-24 13:29N 51°58' E 004°07'0 0.0
2016-Nov-24 12:29N 51°58' E 004°07'0 0.0
2016-Nov-24 11:32N 51°58' E 004°07'0 0.0
2016-Nov-24 10:32N 51°58' E 004°07'0 0.0
2016-Nov-24 09:32N 51°58' E 004°07'0 0.0
2016-Nov-24 08:32N 51°58' E 004°07'0 0.0
2016-Nov-24 07:32N 51°58' E 004°07'0 0.0
2016-Nov-24 06:32N 51°58' E 004°07'0 0.0
2016-Nov-24 05:32N 51°58' E 004°07'0 0.0
2016-Nov-24 04:32N 51°58' E 004°07'0 0.0
2016-Nov-24 03:32N 51°58' E 004°07'0 0.0
2016-Nov-24 02:32N 51°58' E 004°07'0 0.0
2016-Nov-24 01:32N 51°58' E 004°07'0 0.0
2016-Nov-24 00:32N 51°58' E 004°07'0 0.0
2016-Nov-23 23:32N 51°58' E 004°07'0 0.0
2016-Nov-23 22:32N 51°58' E 004°07'0 0.0
2016-Nov-23 21:32N 51°58' E 004°07'0 0.0
2016-Nov-23 20:32N 51°58' E 004°07'0 0.0
2016-Nov-23 19:32N 51°58' E 004°07'  
Track history (hours):
 
Tides and Currents Weather Stations Pressure Air Temp Water Temp Dewpoint Dewpoint Depression Visibility Wind Speed Wind Dir Waves Ship Positions

Italic G

Last reported at 2016-Dec-03 19:28 UTC. Time now 2016-Dec-04 03:53 UTC.
Position N 59°37' E 023°10'.

Length 229 m; draft 12.8 m.

Type: Cargo ship. MMSI: 247282300.

Date/timePositionNaut miles runAvg speedWind from/ knotsBaromVisibWave heightAir tempDewpointWater temp
2016-Dec-03 19:28N 59°37' E 023°10'1011.3
2016-Dec-03 18:33N 59°40' E 023°30'3611.4
2016-Dec-03 15:22N 59°49' E 024°40'1211.2
2016-Dec-03 14:19N 59°51' E 025°03'3411.3
2016-Dec-03 11:17N 59°58' E 026°09'811.4
2016-Dec-03 10:33N 60°00' E 026°25'3210.7
2016-Dec-03 07:33N 60°07' E 027°28'1210.6
2016-Dec-03 06:24N 60°12' E 027°51'1011.1
2016-Dec-03 05:32N 60°09' E 028°09'1010.6
2016-Dec-03 04:33N 60°04' E 028°28'9 8.8
2016-Dec-03 03:33N 59°56' E 028°35'9 9.0
2016-Dec-03 02:33N 59°49' E 028°26'7 7.4
2016-Dec-03 01:34N 59°41' E 028°25'0 0.1
2016-Dec-03 00:24N 59°41' E 028°25'0 0.0
2016-Dec-02 23:27N 59°41' E 028°25'0 0.0
2016-Dec-02 22:27N 59°41' E 028°25'0 0.0
2016-Dec-02 21:24N 59°41' E 028°25'0 0.0
2016-Dec-02 20:30N 59°41' E 028°25'0 0.0
2016-Dec-02 19:15N 59°41' E 028°25'0 0.0
2016-Dec-02 18:33N 59°41' E 028°25'0 0.0
2016-Dec-02 17:33N 59°41' E 028°25'0 0.0
2016-Dec-02 16:33N 59°41' E 028°25'0 0.0
2016-Dec-02 15:30N 59°41' E 028°25'0 0.0
2016-Dec-02 14:33N 59°41' E 028°25'0 0.0
2016-Dec-02 13:21N 59°41' E 028°25'0 0.0
2016-Dec-02 12:33N 59°41' E 028°25'0 0.0
2016-Dec-02 11:24N 59°41' E 028°25'0 0.0
2016-Dec-02 10:24N 59°41' E 028°25'0 0.0
2016-Dec-02 09:24N 59°41' E 028°25'0 0.0
2016-Dec-02 08:27N 59°41' E 028°25'0 0.0
2016-Dec-02 07:27N 59°41' E 028°25'0 0.0
2016-Dec-02 06:30N 59°41' E 028°25'0 0.0
2016-Dec-02 05:30N 59°41' E 028°25'0 0.0
2016-Dec-02 04:33N 59°41' E 028°25'0 0.0
2016-Dec-02 03:33N 59°41' E 028°25'0 0.0
2016-Dec-02 02:33N 59°41' E 028°25'0 0.0
2016-Dec-02 01:33N 59°41' E 028°25'0 0.0
2016-Dec-02 00:33N 59°41' E 028°25'0 0.0
2016-Dec-01 23:33N 59°41' E 028°25'0 0.0
2016-Dec-01 22:33N 59°41' E 028°25'0 0.0
2016-Dec-01 21:33N 59°41' E 028°25'0 0.0
2016-Dec-01 20:24N 59°41' E 028°25'0 0.0
2016-Dec-01 19:27N 59°41' E 028°25'0 0.0
2016-Dec-01 18:27N 59°41' E 028°25'0 0.0
2016-Dec-01 17:15N 59°41' E 028°25'0 0.0
2016-Dec-01 16:30N 59°41' E 028°25'0 0.0
2016-Dec-01 15:30N 59°41' E 028°25'0 0.0
2016-Dec-01 14:30N 59°41' E 028°25'0 0.0
2016-Dec-01 13:33N 59°41' E 028°25'0 0.0
2016-Dec-01 12:33N 59°41' E 028°25'0 0.0
2016-Dec-01 11:30N 59°41' E 028°25'0 0.0
2016-Dec-01 10:30N 59°41' E 028°25'0 0.0
2016-Dec-01 09:33N 59°41' E 028°25'0 0.0
2016-Dec-01 08:33N 59°41' E 028°25'0 0.0
2016-Dec-01 07:33N 59°41' E 028°25'0 0.0
2016-Dec-01 06:24N 59°41' E 028°25'0 0.0
2016-Dec-01 05:27N 59°41' E 028°25'0 0.0
2016-Dec-01 04:12N 59°41' E 028°25'0 0.0
2016-Dec-01 03:24N 59°41' E 028°25'0 0.0
2016-Dec-01 02:30N 59°41' E 028°25'0 0.0
2016-Dec-01 01:30N 59°41' E 028°25'0 0.0
2016-Dec-01 00:33N 59°41' E 028°25'1 0.7
2016-Nov-30 23:33N 59°42' E 028°24'8 8.2
2016-Nov-30 22:33N 59°50' E 028°26'7 7.5
2016-Nov-30 21:33N 59°56' E 028°33'3 2.6
2016-Nov-30 20:33N 59°58' E 028°37'2 1.5
2016-Nov-30 19:33N 59°60' E 028°36'6 6.2
2016-Nov-30 18:34N 60°03' E 028°26'1110.8
2016-Nov-30 17:33N 60°08' E 028°07'3811.1
2016-Nov-30 14:09N 59°58' E 026°54'711.8
2016-Nov-30 13:33N 59°59' E 026°40'5011.8
2016-Nov-30 09:18N 59°48' E 025°02'3211.8
2016-Nov-30 06:33N 59°39' E 024°01'1211.7
2016-Nov-30 05:33N 59°35' E 023°39'1211.7
2016-Nov-30 04:33N 59°32' E 023°17'33810.9
2016-Nov-28 21:32N 55°38' E 015°39'1211.9
2016-Nov-28 20:34N 55°34' E 015°20'1211.9
2016-Nov-28 19:34N 55°29' E 015°01'1212.0
2016-Nov-28 18:33N 55°25' E 014°42'1211.6
2016-Nov-28 17:33N 55°16' E 014°28'1110.5
2016-Nov-28 16:34N 55°10' E 014°13'1212.1
2016-Nov-28 15:33N 55°10' E 013°52'2911.9
2016-Nov-28 13:08N 55°13' E 013°02'711.9
2016-Nov-28 12:34N 55°15' E 012°50'10 9.9
2016-Nov-28 11:33N 55°22' E 012°38'1211.8
2016-Nov-28 10:33N 55°33' E 012°42'1010.4
2016-Nov-28 09:34N 55°43' E 012°41'1313.1
2016-Nov-28 08:33N 55°56' E 012°38'1010.1
2016-Nov-28 07:33N 56°06' E 012°33'1110.6
2016-Nov-28 06:33N 56°12' E 012°17'5510.8
2016-Nov-28 01:27N 57°03' E 011°40'1011.1
2016-Nov-28 00:33N 57°13' E 011°34'1110.9
2016-Nov-27 23:33N 57°23' E 011°27'1010.1
2016-Nov-27 22:33N 57°31' E 011°16'10 9.5
2016-Nov-27 21:33N 57°37' E 011°02'9 9.3
2016-Nov-27 20:33N 57°44' E 010°50'9 8.8
2016-Nov-27 19:33N 57°48' E 010°36'8 7.9
2016-Nov-27 18:33N 57°49' E 010°21'272 8.2
2016-Nov-26 09:23N 54°17' E 005°16'1011.6
2016-Nov-26 08:33N 54°08' E 005°09'1211.7
2016-Nov-26 07:33N 53°57' E 005°03'1212.0
2016-Nov-26 06:33N 53°46' E 004°56'1212.2
2016-Nov-26 05:33N 53°34' E 004°49'1312.6
2016-Nov-26 04:30N 53°22' E 004°41'1213.0
2016-Nov-26 03:33N 53°11' E 004°32'1312.9
2016-Nov-26 02:33N 52°59' E 004°22'1313.0
2016-Nov-26 01:33N 52°48' E 004°11'1313.0
2016-Nov-26 00:33N 52°37' E 003°60'1412.9
2016-Nov-25 23:28N 52°24' E 003°53'1212.6
2016-Nov-25 22:33N 52°12' E 003°53'1010.0
2016-Nov-25 21:33N 52°02' E 003°55'8 7.8
2016-Nov-25 20:31N 51°58' E 004°07'0 0.0
2016-Nov-25 19:31N 51°58' E 004°07'0 0.0
2016-Nov-25 18:31N 51°58' E 004°07'0 0.0
2016-Nov-25 17:31N 51°58' E 004°07'0 0.0
2016-Nov-25 16:32N 51°58' E 004°07'0 0.0
2016-Nov-25 15:32N 51°58' E 004°07'0 0.0
2016-Nov-25 14:32N 51°58' E 004°07'0 0.0
2016-Nov-25 13:32N 51°58' E 004°07'0 0.0
2016-Nov-25 12:25N 51°58' E 004°07'0 0.0
2016-Nov-25 11:32N 51°58' E 004°07'0 0.0
2016-Nov-25 10:32N 51°58' E 004°07'0 0.0
2016-Nov-25 09:32N 51°58' E 004°07'0 0.0
2016-Nov-25 08:31N 51°58' E 004°07'0 0.0
2016-Nov-25 07:29N 51°58' E 004°07'0 0.0
2016-Nov-25 06:32N 51°58' E 004°07'0 0.0
2016-Nov-25 05:31N 51°58' E 004°07'0 0.0
2016-Nov-25 04:31N 51°58' E 004°07'0 0.0
2016-Nov-25 03:29N 51°58' E 004°07'0 0.0
2016-Nov-25 02:32N 51°58' E 004°07'0 0.0
2016-Nov-25 01:32N 51°58' E 004°07'0 0.0
2016-Nov-25 00:32N 51°58' E 004°07'0 0.0
2016-Nov-24 23:29N 51°58' E 004°07'0 0.0
2016-Nov-24 22:29N 51°58' E 004°07'0 0.0
2016-Nov-24 21:32N 51°58' E 004°07'0 0.0
2016-Nov-24 20:32N 51°58' E 004°07'0 0.0
2016-Nov-24 19:32N 51°58' E 004°07'0 0.0
2016-Nov-24 18:32N 51°58' E 004°07'0 0.0
2016-Nov-24 17:32N 51°58' E 004°07'0 0.0
2016-Nov-24 16:32N 51°58' E 004°07'0 0.0
2016-Nov-24 15:29N 51°58' E 004°07'0 0.0
2016-Nov-24 14:32N 51°58' E 004°07'0 0.0
2016-Nov-24 13:29N 51°58' E 004°07'0 0.0
2016-Nov-24 12:29N 51°58' E 004°07'0 0.0
2016-Nov-24 11:32N 51°58' E 004°07'0 0.0
2016-Nov-24 10:32N 51°58' E 004°07'0 0.0
2016-Nov-24 09:32N 51°58' E 004°07'0 0.0
2016-Nov-24 08:32N 51°58' E 004°07'0 0.0
2016-Nov-24 07:32N 51°58' E 004°07'0 0.0
2016-Nov-24 06:32N 51°58' E 004°07'0 0.0
2016-Nov-24 05:32N 51°58' E 004°07'0 0.0
2016-Nov-24 04:32N 51°58' E 004°07'0 0.0
2016-Nov-24 03:32N 51°58' E 004°07'0 0.0
2016-Nov-24 02:32N 51°58' E 004°07'0 0.0
2016-Nov-24 01:32N 51°58' E 004°07'0 0.0
2016-Nov-24 00:32N 51°58' E 004°07'0 0.0
2016-Nov-23 23:32N 51°58' E 004°07'0 0.0
2016-Nov-23 22:32N 51°58' E 004°07'0 0.0
2016-Nov-23 21:32N 51°58' E 004°07'0 0.0
2016-Nov-23 20:32N 51°58' E 004°07'0 0.0
2016-Nov-23 19:32N 51°58' E 004°07'  

Dump ship's entire track history